Time;durP1;ratioP1;P1;durP2;ratioP2;P2;SDS_P1;SDS_P2;PMS_P1;PMS_P2;Temp;Humidity;BMP_temperature;BMP_pressure;BME280_temperature;BME280_humidity;BME280_pressure;Samples;Min_cycle;Max_cycle;Signal;HPM_P1;HPM_P2
2022/04/07 00:00:25;;;;;;;6.38;2.85;;;9.30;99.90;;;;;;4957419;28;20038;-84
2022/04/07 00:02:51;;;;;;;;;;;9.30;99.90;;;;;;4974736;28;20078;-85
2022/04/07 00:05:16;;;;;;;5.53;2.28;;;9.40;99.90;;;;;;4957189;28;19913;-84
2022/04/07 00:07:42;;;;;;;;;;;9.40;99.90;;;;;;4975256;28;20446;-85
2022/04/07 00:10:08;;;;;;;6.57;3.00;;;9.50;99.90;;;;;;4958115;28;19906;-84
2022/04/07 00:12:34;;;;;;;10.70;4.28;;;9.40;99.90;;;;;;4956018;28;20027;-85
2022/04/07 00:15:00;;;;;;;;;;;9.30;99.90;;;;;;4956258;28;20039;-85
2022/04/07 00:17:27;;;;;;;6.80;2.83;;;9.30;99.90;;;;;;4974481;28;19937;-84
2022/04/07 00:19:53;;;;;;;2.90;2.25;;;9.40;99.90;;;;;;4957138;28;20027;-85
2022/04/07 00:22:18;;;;;;;;;;;9.60;99.90;;;;;;4957073;28;20384;-84
2022/04/07 00:24:44;;;;;;;4.32;2.28;;;9.70;99.90;;;;;;4956566;28;20370;-85
2022/04/07 00:27:10;;;;;;;;;;;9.90;99.90;;;;;;4974094;28;20480;-85
2022/04/07 00:29:36;;;;;;;4.85;1.80;;;10.00;99.90;;;;;;4956614;28;19921;-84
2022/04/07 00:32:05;;;;;;;2.50;1.33;;;10.10;99.90;;;;;;4956615;28;20049;-85
2022/04/07 00:34:32;;;;;;;5.90;1.55;;;10.30;99.90;;;;;;4989048;28;20039;-85
2022/04/07 00:36:57;;;;;;;3.05;1.60;;;10.30;99.90;;;;;;4989083;28;20031;-85
2022/04/07 00:39:23;;;;;;;;;;;10.40;99.90;;;;;;4957212;28;20513;-84
2022/04/07 00:41:49;;;;;;;8.00;2.75;;;10.30;99.90;;;;;;4973719;28;19950;-84
2022/04/07 00:44:15;;;;;;;4.00;1.55;;;10.20;99.90;;;;;;4956827;28;20037;-84
2022/04/07 00:46:42;;;;;;;4.32;1.65;;;10.10;99.90;;;;;;4974011;28;20095;-84
2022/04/07 00:49:08;;;;;;;8.25;2.00;;;10.00;99.90;;;;;;4956740;28;20038;-85
2022/04/07 00:51:39;;;;;;;4.15;1.90;;;10.00;99.90;;;;;;4956607;28;20062;-85
2022/04/07 00:54:06;;;;;;;4.95;2.00;;;9.90;99.90;;;;;;4956248;28;20038;-84
2022/04/07 00:56:34;;;;;;;7.43;2.00;;;9.90;99.90;;;;;;4956350;28;20035;-85
2022/04/07 00:59:00;;;;;;;4.32;2.30;;;10.00;99.90;;;;;;4988872;28;20042;-84
2022/04/07 01:01:28;;;;;;;;;;;10.10;99.90;;;;;;4957164;28;20034;-84
2022/04/07 01:03:54;;;;;;;;;;;10.00;99.90;;;;;;4956658;28;20001;-84
2022/04/07 01:06:20;;;;;;;4.30;1.20;;;10.00;99.90;;;;;;4956496;28;20060;-84
2022/04/07 01:08:46;;;;;;;;;;;10.10;99.90;;;;;;4956598;28;20031;-84
2022/04/07 01:11:12;;;;;;;3.30;1.33;;;10.20;99.90;;;;;;4956489;28;19910;-84
2022/04/07 01:13:41;;;;;;;;;;;10.30;99.90;;;;;;4956718;28;20510;-85
2022/04/07 01:16:07;;;;;;;8.60;3.03;;;10.20;99.90;;;;;;4973825;28;19917;-85
2022/04/07 01:18:33;;;;;;;;;;;10.10;99.90;;;;;;4956515;28;20031;-85
2022/04/07 01:20:59;;;;;;;8.85;3.40;;;10.00;99.90;;;;;;4956176;28;20330;-84
2022/04/07 01:23:26;;;;;;;;;;;9.80;99.90;;;;;;4956518;28;20031;-85
2022/04/07 01:25:53;;;;;;;6.00;2.75;;;9.70;99.90;;;;;;4956084;28;19910;-85
2022/04/07 01:28:18;;;;;;;8.02;2.83;;;9.60;99.90;;;;;;4956158;28;20118;-84
2022/04/07 01:30:44;;;;;;;;;;;9.50;99.90;;;;;;4956559;28;20061;-84
2022/04/07 01:33:12;;;;;;;5.50;2.10;;;9.50;99.90;;;;;;4956041;28;19918;-84
2022/04/07 01:35:38;;;;;;;5.85;2.05;;;9.50;99.90;;;;;;4955760;28;20503;-85
2022/04/07 01:38:03;;;;;;;;;;;9.40;99.90;;;;;;4959355;28;20050;-84
2022/04/07 01:40:35;;;;;;;5.63;2.00;;;9.30;99.90;;;;;;4959467;28;19906;-84
2022/04/07 01:43:05;;;;;;;6.82;1.98;;;9.40;99.90;;;;;;4991645;28;20133;-84
2022/04/07 01:45:33;;;;;;;6.57;1.77;;;9.50;99.90;;;;;;4991935;28;20089;-85
2022/04/07 01:48:01;;;;;;;3.95;1.58;;;9.50;99.90;;;;;;4976647;28;20031;-84
2022/04/07 01:50:29;;;;;;;7.85;2.30;;;9.60;99.90;;;;;;4959170;28;20392;-85
2022/04/07 01:52:56;;;;;;;4.65;1.92;;;9.50;99.90;;;;;;4959268;28;20517;-85
2022/04/07 01:55:24;;;;;;;5.68;2.42;;;9.50;99.90;;;;;;4958559;28;20059;-84
2022/04/07 01:57:50;;;;;;;6.72;2.10;;;9.50;99.90;;;;;;4976448;28;20030;-84
2022/04/07 02:00:16;;;;;;;4.45;2.00;;;9.50;99.90;;;;;;4959091;28;20520;-85
2022/04/07 02:02:42;;;;;;;;;;;9.70;99.90;;;;;;4959311;28;20031;-84
2022/04/07 02:05:10;;;;;;;4.13;1.20;;;10.10;99.90;;;;;;4959260;28;19953;-85
2022/04/07 02:07:40;;;;;;;3.05;1.58;;;10.20;99.90;;;;;;4976372;28;20031;-85
2022/04/07 02:10:08;;;;;;;6.85;2.00;;;10.20;99.90;;;;;;4976660;28;20055;-85
2022/04/07 02:12:37;;;;;;;6.35;2.03;;;10.10;99.90;;;;;;4976341;28;20491;-85
2022/04/07 02:15:05;;;;;;;3.40;1.77;;;10.00;99.90;;;;;;4976113;28;20062;-83
2022/04/07 02:17:30;;;;;;;5.10;1.83;;;9.80;99.90;;;;;;4958931;28;20023;-85
2022/04/07 02:19:57;;;;;;;;;;;9.70;99.90;;;;;;4977037;28;20031;-84
2022/04/07 02:22:23;;;;;;;3.58;1.65;;;9.70;99.90;;;;;;4958902;28;19960;-84
2022/04/07 02:24:49;;;;;;;4.75;1.90;;;9.70;99.90;;;;;;4958763;28;20030;-85
2022/04/07 02:27:16;;;;;;;;;;;9.80;99.90;;;;;;4976372;28;20031;-84
2022/04/07 02:29:42;;;;;;;4.67;1.60;;;9.90;99.90;;;;;;4958813;28;19937;-83
2022/04/07 02:32:09;;;;;;;6.00;1.40;;;9.90;99.90;;;;;;4976005;28;20293;-84
2022/04/07 02:34:35;;;;;;;7.18;2.30;;;10.00;99.90;;;;;;4975670;28;20035;-85
2022/04/07 02:37:01;;;;;;;;;;;10.10;99.90;;;;;;4958781;28;20046;-84
2022/04/07 02:39:27;;;;;;;5.97;2.10;;;10.30;99.90;;;;;;4958502;28;20370;-85
2022/04/07 02:41:53;;;;;;;;;;;10.40;99.90;;;;;;4975997;28;20122;-85
2022/04/07 02:44:20;;;;;;;3.03;1.05;;;10.60;99.90;;;;;;4958081;28;19910;-85
2022/04/07 02:46:45;;;;;;;5.68;1.38;;;10.80;99.90;;;;;;4977263;28;20035;-85
2022/04/07 02:49:11;;;;;;;;;;;11.00;99.90;;;;;;4975141;28;20047;-85
2022/04/07 02:51:37;;;;;;;5.40;1.45;;;11.20;99.90;;;;;;4958155;28;19912;-85
2022/04/07 02:54:02;;;;;;;;;;;11.20;99.90;;;;;;4975657;28;20037;-84
2022/04/07 02:56:29;;;;;;;4.60;1.70;;;11.20;99.90;;;;;;4974895;28;19914;-84
2022/04/07 02:58:55;;;;;;;2.05;0.98;;;11.40;99.90;;;;;;4975297;28;20030;-84
2022/04/07 03:01:21;;;;;;;3.40;1.40;;;11.50;99.30;;;;;;4958074;28;20493;-83
2022/04/07 03:03:48;;;;;;;;;;;11.70;98.30;;;;;;4975690;28;20023;-85
2022/04/07 03:06:14;;;;;;;2.42;1.08;;;11.90;97.50;;;;;;4958239;28;19933;-84
2022/04/07 03:08:40;;;;;;;4.70;1.40;;;12.00;97.20;;;;;;4957649;28;20030;-84
2022/04/07 03:11:07;;;;;;;;;;;12.10;96.40;;;;;;4958430;28;20077;-84
2022/04/07 03:13:33;;;;;;;7.25;1.25;;;12.10;95.60;;;;;;4957687;28;19906;-84
2022/04/07 03:15:59;;;;;;;8.30;1.60;;;12.10;95.50;;;;;;4957584;28;20043;-85
2022/04/07 03:18:25;;;;;;;;;;;12.10;95.00;;;;;;4975318;28;20027;-85
2022/04/07 03:20:51;;;;;;;7.15;1.70;;;12.20;93.70;;;;;;4957830;28;19906;-85
2022/04/07 03:23:18;;;;;;;9.43;1.80;;;12.30;92.50;;;;;;4957780;28;20054;-85
2022/04/07 03:25:45;;;;;;;7.85;1.38;;;12.40;91.60;;;;;;4989927;28;20483;-85
2022/04/07 03:28:11;;;;;;;3.30;1.40;;;12.30;92.20;;;;;;4974869;28;20042;-85
2022/04/07 03:30:37;;;;;;;;;;;12.40;91.60;;;;;;4958142;28;20442;-82
2022/04/07 03:33:02;;;;;;;4.28;1.42;;;12.30;92.00;;;;;;4957490;28;19906;-85
2022/04/07 03:35:28;;;;;;;;;;;12.20;91.60;;;;;;4975126;28;20055;-84
2022/04/07 03:37:54;;;;;;;4.82;1.83;;;12.30;89.90;;;;;;4957644;28;19910;-84
2022/04/07 03:40:19;;;;;;;;;;;12.50;90.30;;;;;;4974384;28;20023;-85
2022/04/07 03:42:45;;;;;;;3.05;1.30;;;12.40;90.80;;;;;;4957002;28;19965;-83
2022/04/07 03:45:10;;;;;;;;;;;12.30;91.50;;;;;;4957776;28;20098;-84
2022/04/07 03:47:36;;;;;;;3.05;1.17;;;12.30;91.90;;;;;;4956884;28;19906;-84
2022/04/07 03:50:02;;;;;;;;;;;12.20;92.80;;;;;;4989609;28;20027;-84
2022/04/07 03:52:28;;;;;;;9.30;1.33;;;12.00;93.70;;;;;;4957017;28;19906;-84
2022/04/07 03:54:53;;;;;;;;;;;11.90;93.20;;;;;;4957348;28;20037;-83
2022/04/07 03:57:19;;;;;;;5.10;1.88;;;12.00;93.30;;;;;;4974309;28;20278;-85
2022/04/07 03:59:45;;;;;;;;;;;11.90;94.80;;;;;;4989525;28;20499;-84
2022/04/07 04:02:12;;;;;;;7.18;1.58;;;11.80;95.20;;;;;;4957055;28;19910;-85
2022/04/07 04:04:38;;;;;;;7.45;1.98;;;11.70;96.20;;;;;;4956574;28;20029;-84
2022/04/07 04:07:04;;;;;;;;;;;11.50;98.50;;;;;;4957176;28;20534;-84
2022/04/07 04:09:30;;;;;;;4.57;2.05;;;11.30;99.20;;;;;;4956996;28;19968;-84
2022/04/07 04:11:56;;;;;;;;;;;11.20;99.00;;;;;;4957354;28;20458;-84
2022/04/07 04:14:21;;;;;;;2.65;1.42;;;11.30;98.40;;;;;;4956437;28;19910;-85
2022/04/07 04:16:47;;;;;;;;;;;11.40;97.80;;;;;;4957180;28;20041;-84
2022/04/07 04:19:13;;;;;;;2.95;1.30;;;11.40;97.40;;;;;;4956737;28;19953;-84
2022/04/07 04:21:38;;;;;;;;;;;11.40;97.50;;;;;;4957223;28;20031;-84
2022/04/07 04:24:04;;;;;;;10.27;2.40;;;11.40;97.30;;;;;;4973633;28;19910;-83
2022/04/07 04:26:30;;;;;;;;;;;11.40;97.70;;;;;;4974293;28;20034;-84
2022/04/07 04:28:55;;;;;;;7.93;1.67;;;11.40;97.90;;;;;;4956479;28;19906;-85
2022/04/07 04:31:24;;;;;;;;;;;11.30;97.80;;;;;;4957169;28;20042;-83
2022/04/07 04:33:53;;;;;;;5.93;1.67;;;11.30;97.90;;;;;;4956266;28;19906;-84
2022/04/07 04:36:20;;;;;;;4.13;1.60;;;11.40;97.70;;;;;;4956756;28;20038;-84
2022/04/07 04:38:45;;;;;;;;;;;11.40;97.10;;;;;;4973963;28;20038;-85
2022/04/07 04:41:11;;;;;;;4.13;1.75;;;11.70;94.60;;;;;;4956298;28;19918;-83
2022/04/07 04:43:36;;;;;;;;;;;11.80;95.50;;;;;;4956704;28;20035;-84
2022/04/07 04:46:03;;;;;;;4.32;1.98;;;11.80;95.60;;;;;;4973815;28;19913;-85
2022/04/07 04:48:28;;;;;;;10.10;2.08;;;11.90;95.90;;;;;;4956285;28;20121;-83
2022/04/07 04:50:55;;;;;;;;;;;11.90;96.20;;;;;;4956889;28;20074;-83
2022/04/07 04:53:22;;;;;;;6.13;2.50;;;11.80;97.00;;;;;;4956690;28;19906;-83
2022/04/07 04:55:48;;;;;;;6.07;2.50;;;11.70;97.80;;;;;;4988447;28;20046;-84
2022/04/07 04:58:14;;;;;;;4.80;2.30;;;11.70;97.80;;;;;;4956234;28;20472;-84
2022/04/07 05:00:40;;;;;;;;;;;11.80;97.60;;;;;;4956549;28;20460;-84
2022/04/07 05:03:06;;;;;;;5.60;2.50;;;11.70;98.00;;;;;;4956277;28;20000;-84
2022/04/07 05:05:31;;;;;;;;;;;11.60;99.20;;;;;;4956578;28;20514;-84
2022/04/07 05:07:58;;;;;;;7.13;2.80;;;11.50;99.50;;;;;;4956359;28;19948;-85
2022/04/07 05:10:24;;;;;;;4.53;2.67;;;11.50;99.50;;;;;;4956256;28;20026;-84
2022/04/07 05:12:51;;;;;;;5.70;2.15;;;11.50;98.90;;;;;;4958880;28;20037;-85
2022/04/07 05:15:17;;;;;;;5.90;3.08;;;11.60;98.80;;;;;;4977486;28;20495;-84
2022/04/07 05:17:47;;;;;;;;;;;11.70;98.40;;;;;;4959402;28;20026;-84
2022/04/07 05:20:12;;;;;;;13.13;3.45;;;11.80;97.70;;;;;;4958860;28;19908;-84
2022/04/07 05:22:38;;;;;;;;;;;11.80;97.40;;;;;;4960014;28;20038;-85
2022/04/07 05:25:04;;;;;;;6.63;3.65;;;11.90;97.00;;;;;;4959170;28;20282;-85
2022/04/07 05:27:32;;;;;;;7.70;3.13;;;11.90;96.90;;;;;;4959482;28;20491;-85
2022/04/07 05:29:59;;;;;;;7.60;4.68;;;12.10;95.90;;;;;;4959737;28;20126;-85
2022/04/07 05:32:25;;;;;;;6.00;3.95;;;12.20;95.30;;;;;;4959582;28;20073;-84
2022/04/07 05:34:50;;;;;;;;;;;12.10;95.80;;;;;;4959906;28;20471;-84
2022/04/07 05:37:17;;;;;;;6.28;2.63;;;12.20;94.80;;;;;;4959562;28;20377;-84
2022/04/07 05:39:43;;;;;;;6.70;2.20;;;12.40;94.20;;;;;;4959598;28;20080;-84
2022/04/07 05:42:08;;;;;;;;;;;12.40;93.30;;;;;;4959310;28;20050;-85
2022/04/07 05:44:34;;;;;;;5.65;2.30;;;12.40;93.50;;;;;;4976578;28;20012;-84
2022/04/07 05:46:59;;;;;;;;;;;12.50;93.00;;;;;;4977020;28;20027;-85
2022/04/07 05:49:25;;;;;;;4.93;2.53;;;12.60;92.50;;;;;;4959663;28;20367;-84
2022/04/07 05:51:54;;;;;;;;;;;12.60;92.10;;;;;;4977104;28;20037;-85
2022/04/07 05:54:20;;;;;;;6.32;2.80;;;12.80;90.30;;;;;;4959303;28;19941;-85
2022/04/07 05:56:46;;;;;;;;;;;12.80;89.80;;;;;;4959535;28;20109;-85
2022/04/07 05:59:12;;;;;;;4.93;2.53;;;12.80;90.70;;;;;;4959352;28;20000;-85
2022/04/07 06:01:37;;;;;;;;;;;13.00;90.10;;;;;;4959477;28;20022;-85
2022/04/07 06:04:03;;;;;;;5.97;2.17;;;12.90;89.70;;;;;;4980083;28;19912;-84
2022/04/07 06:06:28;;;;;;;;;;;12.90;90.20;;;;;;4975431;28;20030;-85
2022/04/07 06:08:54;;;;;;;6.32;3.22;;;12.80;90.50;;;;;;4975353;28;19936;-84
2022/04/07 06:11:20;;;;;;;;;;;12.80;91.20;;;;;;4959324;28;20113;-85
2022/04/07 06:13:46;;;;;;;5.47;2.90;;;12.80;92.10;;;;;;4976204;28;19906;-85
2022/04/07 06:16:11;;;;;;;;;;;12.80;92.60;;;;;;4959655;28;20035;-83
2022/04/07 06:18:37;;;;;;;8.60;3.38;;;12.70;91.90;;;;;;4958915;28;19906;-85
2022/04/07 06:21:03;;;;;;;;;;;12.80;92.60;;;;;;4976460;28;20031;-85
2022/04/07 06:23:31;;;;;;;11.45;3.45;;;12.70;93.40;;;;;;4957595;28;19911;-84
2022/04/07 06:25:57;;;;;;;6.75;3.40;;;12.50;94.60;;;;;;4958744;28;20070;-85
2022/04/07 06:28:23;;;;;;;;;;;12.60;94.90;;;;;;4959686;28;20030;-83
2022/04/07 06:30:51;;;;;;;20.75;4.78;;;12.60;94.70;;;;;;4961165;28;19906;-85
2022/04/07 06:33:18;;;;;;;6.85;3.45;;;12.70;94.30;;;;;;4958877;28;20031;-85
2022/04/07 06:35:43;;;;;;;8.27;3.53;;;12.60;95.10;;;;;;4958559;28;20125;-85
2022/04/07 06:38:09;;;;;;;;;;;12.50;95.30;;;;;;4958811;28;20118;-86
2022/04/07 06:40:35;;;;;;;13.38;3.70;;;12.50;94.90;;;;;;4975774;28;19913;-85
2022/04/07 06:43:00;;;;;;;;;;;12.60;95.00;;;;;;4975971;28;20141;-85
2022/04/07 06:45:27;;;;;;;9.10;3.65;;;12.60;95.00;;;;;;4975303;28;19910;-85
2022/04/07 06:47:53;;;;;;;15.40;6.80;;;12.70;94.70;;;;;;4975415;28;20534;-85
2022/04/07 06:50:19;;;;;;;;;;;12.70;94.90;;;;;;4976360;28;20376;-86
2022/04/07 06:52:45;;;;;;;9.18;3.13;;;12.70;95.40;;;;;;4958093;28;19917;-84
2022/04/07 06:55:13;;;;;;;10.93;3.90;;;12.80;94.50;;;;;;4958122;28;20043;-84
2022/04/07 06:58:06;;;;;;;10.73;4.55;;;12.80;94.60;;;;;;4958524;28;20054;-84
2022/04/07 07:00:34;;;;;;;9.30;3.70;;;12.90;94.00;;;;;;4975444;28;20110;-85
2022/04/07 07:03:02;;;;;;;9.95;4.63;;;12.80;95.90;;;;;;4958020;28;20023;-85
2022/04/07 07:05:30;;;;;;;9.88;3.75;;;12.70;96.30;;;;;;4958335;28;20557;-85
2022/04/07 07:07:56;;;;;;;14.52;4.35;;;12.90;95.20;;;;;;4958097;28;20114;-85
2022/04/07 07:10:25;;;;;;;;;;;13.00;95.00;;;;;;4975834;28;20110;-85
2022/04/07 07:12:52;;;;;;;16.10;4.65;;;12.90;95.10;;;;;;4957982;28;19906;-85
2022/04/07 07:15:21;;;;;;;8.32;4.07;;;13.20;95.20;;;;;;4958175;28;20058;-85
2022/04/07 07:17:47;;;;;;;9.88;3.88;;;13.30;93.70;;;;;;4974732;28;20173;-85
2022/04/07 07:20:13;;;;;;;13.48;7.20;;;13.20;94.20;;;;;;4957880;28;20023;-84
2022/04/07 07:22:39;;;;;;;;;;;13.20;94.80;;;;;;4958247;28;20475;-85
2022/04/07 07:25:05;;;;;;;11.80;4.55;;;13.20;94.90;;;;;;4958052;28;19914;-84
2022/04/07 07:27:39;;;;;;;12.45;4.30;;;13.40;94.40;;;;;;4957662;28;20029;-85
2022/04/07 07:30:08;;;;;;;10.02;4.05;;;13.20;95.70;;;;;;4957535;28;20537;-85
2022/04/07 07:32:35;;;;;;;8.10;4.00;;;13.40;95.80;;;;;;4957566;28;20031;-85
2022/04/07 07:35:01;;;;;;;15.27;5.07;;;13.60;94.50;;;;;;4957251;28;20074;-85
2022/04/07 07:37:26;;;;;;;;;;;13.30;95.40;;;;;;4975074;28;20058;-86
2022/04/07 07:39:52;;;;;;;17.08;7.00;;;13.40;93.80;;;;;;4957802;28;20477;-85
2022/04/07 07:42:17;;;;;;;;;;;13.20;95.70;;;;;;4957750;28;20051;-85
2022/04/07 07:44:43;;;;;;;21.63;5.22;;;13.20;96.90;;;;;;4974228;28;19906;-85
2022/04/07 07:47:08;;;;;;;;;;;13.10;94.30;;;;;;4974937;28;20058;-85
2022/04/07 07:49:35;;;;;;;11.45;4.60;;;13.30;94.60;;;;;;4973960;28;20381;-85
2022/04/07 07:52:00;;;;;;;12.80;4.00;;;13.60;93.00;;;;;;4973400;28;20041;-85
2022/04/07 07:54:26;;;;;;;;;;;13.90;93.30;;;;;;4957461;28;20031;-85
2022/04/07 07:56:52;;;;;;;30.52;4.88;;;14.50;87.20;;;;;;4957135;28;19910;-84
2022/04/07 07:59:20;;;;;;;;;;;14.80;81.40;;;;;;4957961;28;20023;-85
2022/04/07 08:01:46;;;;;;;18.38;5.32;;;14.80;80.40;;;;;;4957238;28;20362;-85
2022/04/07 08:04:12;;;;;;;18.08;4.55;;;15.00;75.80;;;;;;4957211;28;20122;-83
2022/04/07 08:06:38;;;;;;;;;;;14.80;79.20;;;;;;4957523;28;20110;-85
2022/04/07 08:09:05;;;;;;;14.50;4.60;;;14.90;77.50;;;;;;4957052;28;19906;-84
2022/04/07 08:11:30;;;;;;;11.65;4.07;;;15.00;78.20;;;;;;4957410;28;20383;-85
2022/04/07 08:13:56;;;;;;;;;;;15.10;78.00;;;;;;4989626;28;20499;-85
2022/04/07 08:16:21;;;;;;;8.75;4.20;;;15.30;72.90;;;;;;4956903;28;19917;-83
2022/04/07 08:18:47;;;;;;;10.00;4.82;;;15.50;72.40;;;;;;4956939;28;20109;-85
2022/04/07 08:21:13;;;;;;;15.77;5.13;;;15.60;71.50;;;;;;4957169;28;20027;-85
2022/04/07 08:23:38;;;;;;;13.80;6.65;;;15.80;68.90;;;;;;4974198;28;20555;-84
2022/04/07 08:26:04;;;;;;;;;;;15.80;72.60;;;;;;4957340;28;20031;-85
2022/04/07 08:28:29;;;;;;;12.40;6.00;;;15.90;70.20;;;;;;4956831;28;19906;-86
2022/04/07 08:30:55;;;;;;;;;;;15.80;66.50;;;;;;4957092;28;20122;-85
2022/04/07 08:33:21;;;;;;;14.23;6.35;;;15.70;66.20;;;;;;4974042;28;19928;-85
2022/04/07 08:35:46;;;;;;;12.05;5.85;;;15.90;67.50;;;;;;4973811;28;20045;-86
2022/04/07 08:38:15;;;;;;;;;;;16.20;66.50;;;;;;4989397;28;20493;-85
2022/04/07 08:40:42;;;;;;;15.88;7.60;;;16.00;64.50;;;;;;4956540;28;19912;-86
2022/04/07 08:43:09;;;;;;;16.45;4.93;;;15.70;67.90;;;;;;4956789;28;20138;-85
2022/04/07 08:45:41;;;;;;;9.88;4.57;;;15.50;68.50;;;;;;4973917;28;20039;-85
2022/04/07 08:48:09;;;;;;;10.93;5.13;;;15.30;70.90;;;;;;4960093;28;20042;-85
2022/04/07 08:50:35;;;;;;;9.32;5.55;;;15.40;69.80;;;;;;4960662;28;20173;-86
2022/04/07 08:53:01;;;;;;;;;;;15.50;72.30;;;;;;4960799;28;20118;-86
2022/04/07 08:55:27;;;;;;;9.70;4.22;;;15.50;71.90;;;;;;4960451;28;19925;-86
2022/04/07 08:57:52;;;;;;;;;;;15.50;70.30;;;;;;4960824;28;20045;-85
2022/04/07 09:00:18;;;;;;;12.55;3.88;;;15.50;71.20;;;;;;4961146;28;20290;-85
2022/04/07 09:02:44;;;;;;;;;;;15.80;72.30;;;;;;4960524;28;20494;-86
2022/04/07 09:05:11;;;;;;;12.43;5.18;;;16.10;70.80;;;;;;4960503;28;19906;-86
2022/04/07 09:07:36;;;;;;;6.63;3.97;;;16.30;68.10;;;;;;4977518;28;20022;-86
2022/04/07 09:10:04;;;;;;;8.38;3.50;;;16.60;64.80;;;;;;4960479;28;20030;-86
2022/04/07 09:12:30;;;;;;;12.43;4.05;;;16.70;65.20;;;;;;4992605;28;20510;-85
2022/04/07 09:14:58;;;;;;;11.48;3.65;;;16.80;64.30;;;;;;4977308;28;20086;-86
2022/04/07 09:17:24;;;;;;;8.00;3.70;;;16.70;63.80;;;;;;4960449;28;20027;-86
2022/04/07 09:19:50;;;;;;;10.30;3.58;;;16.90;64.40;;;;;;4960358;28;20027;-86
2022/04/07 09:22:16;;;;;;;12.30;3.50;;;17.10;60.90;;;;;;4960298;28;20027;-86
2022/04/07 09:24:42;;;;;;;11.45;3.42;;;17.10;61.70;;;;;;4977255;28;20030;-86
2022/04/07 09:27:10;;;;;;;8.20;2.90;;;17.10;62.40;;;;;;4977422;28;20037;-86
2022/04/07 09:29:42;;;;;;;6.70;2.83;;;17.20;61.80;;;;;;4960190;28;20023;-86
2022/04/07 09:32:18;;;;;;;9.85;3.33;;;17.50;59.90;;;;;;4977479;28;20038;-86
2022/04/07 09:34:45;;;;;;;15.65;4.18;;;17.60;59.50;;;;;;4975797;28;20023;-86
2022/04/07 09:37:11;;;;;;;7.15;2.60;;;18.10;58.10;;;;;;4959921;28;20037;-86
2022/04/07 09:39:39;;;;;;;9.60;3.03;;;18.60;56.50;;;;;;4960104;28;20050;-86
2022/04/07 09:42:26;;;;;;;9.68;2.67;;;18.60;56.10;;;;;;4959418;28;20422;-86
2022/04/07 09:44:56;;;;;;;9.13;2.97;;;18.90;55.60;;;;;;4959972;28;20495;-86
2022/04/07 09:47:23;;;;;;;5.68;2.90;;;18.90;55.40;;;;;;4959805;28;20081;-86
2022/04/07 09:49:49;;;;;;;9.48;3.90;;;18.90;54.80;;;;;;4977225;28;20113;-87
2022/04/07 09:52:20;;;;;;;12.77;3.50;;;18.80;54.70;;;;;;4977134;28;20031;-87
2022/04/07 09:54:51;;;;;;;9.02;3.30;;;18.90;55.10;;;;;;4976921;28;20122;-87
2022/04/07 09:57:21;;;;;;;10.40;2.80;;;18.50;54.60;;;;;;4976604;28;20030;-86
2022/04/07 09:59:47;;;;;;;11.40;2.95;;;18.30;55.20;;;;;;4959744;28;20078;-87
2022/04/07 10:02:16;;;;;;;11.10;4.00;;;18.10;56.10;;;;;;4959519;28;20054;-86
2022/04/07 10:04:43;;;;;;;22.33;3.30;;;18.00;56.70;;;;;;4959469;28;20081;-87
2022/04/07 10:07:11;;;;;;;9.02;3.80;;;18.00;56.80;;;;;;4976652;28;20027;-85
2022/04/07 10:09:40;;;;;;;9.32;2.75;;;17.90;56.80;;;;;;4959051;28;20027;-86
2022/04/07 10:12:08;;;;;;;10.23;3.30;;;18.00;57.00;;;;;;4959653;28;20027;-86
2022/04/07 10:14:36;;;;;;;13.30;4.38;;;17.50;58.00;;;;;;4959153;28;20062;-87
2022/04/07 10:17:01;;;;;;;6.68;2.42;;;17.40;59.20;;;;;;4959315;28;20030;-86
2022/04/07 10:19:42;;;;;;;7.95;2.35;;;17.50;59.60;;;;;;4959313;28;20026;-86
2022/04/07 10:22:30;;;;;;;3.72;1.80;;;17.30;60.30;;;;;;4958646;28;20446;-87
2022/04/07 10:25:03;;;;;;;7.43;2.58;;;17.20;60.60;;;;;;4958044;28;20038;-87
2022/04/07 10:27:33;;;;;;;17.27;3.53;;;17.00;61.30;;;;;;4959180;28;20063;-86
2022/04/07 10:30:10;;;;;;;10.07;2.70;;;17.10;62.50;;;;;;4959229;28;20031;-87
2022/04/07 10:32:38;;;;;;;10.07;2.15;;;17.20;62.90;;;;;;4976225;28;20451;-86
2022/04/07 10:35:04;;;;;;;10.43;3.45;;;17.20;62.70;;;;;;4959070;28;20410;-86
2022/04/07 10:37:31;;;;;;;7.50;2.60;;;17.40;62.70;;;;;;4959164;28;20039;-85
2022/04/07 10:40:16;;;;;;;10.93;4.75;;;17.10;62.80;;;;;;4959028;28;20033;-86
2022/04/07 10:43:05;;;;;;;8.65;3.00;;;17.00;63.90;;;;;;4958098;28;20054;-86
2022/04/07 10:45:34;;;;;;;11.63;2.85;;;17.30;63.80;;;;;;4958539;28;20022;-86
2022/04/07 10:48:16;;;;;;;13.15;2.20;;;17.30;62.80;;;;;;4958222;28;20406;-86
2022/04/07 10:50:53;;;;;;;9.52;2.28;;;17.10;64.20;;;;;;4990766;28;20027;-86
2022/04/07 10:53:22;;;;;;;11.68;2.30;;;17.40;64.50;;;;;;4990901;28;20117;-86
2022/04/07 10:55:59;;;;;;;10.27;2.40;;;17.40;63.50;;;;;;4958612;28;20043;-85
2022/04/07 10:58:48;;;;;;;7.45;1.95;;;16.90;65.60;;;;;;4958591;28;20058;-85
2022/04/07 11:01:14;;;;;;;8.82;2.47;;;16.90;67.50;;;;;;4952619;28;20487;-86
2022/04/07 11:03:42;;;;;;;9.90;1.63;;;17.10;69.40;;;;;;4975623;28;20429;-86
2022/04/07 11:06:10;;;;;;;6.68;2.03;;;17.20;66.90;;;;;;4958496;28;20022;-87
2022/04/07 11:08:36;;;;;;;7.95;1.95;;;17.30;65.20;;;;;;4958459;28;20057;-87
2022/04/07 11:11:01;;;;;;;11.90;2.45;;;17.50;65.30;;;;;;4957834;28;20161;-85
2022/04/07 11:13:44;;;;;;;6.10;1.70;;;17.60;64.90;;;;;;4975567;28;20023;-86
2022/04/07 11:16:35;;;;;;;10.95;3.83;;;17.90;64.50;;;;;;4957940;28;20039;-86
2022/04/07 11:19:35;;;;;;;10.27;2.20;;;17.90;63.20;;;;;;4990370;28;20114;-86
2022/04/07 11:22:09;;;;;;;7.05;1.65;;;17.80;63.10;;;;;;4958138;28;20027;-86
2022/04/07 11:24:42;;;;;;;8.02;2.55;;;17.90;64.20;;;;;;4957856;28;20038;-87
2022/04/07 11:27:35;;;;;;;8.13;2.03;;;17.90;65.40;;;;;;4990406;28;20031;-86
2022/04/07 11:30:10;;;;;;;6.47;1.95;;;18.10;63.20;;;;;;4958119;28;20027;-86
2022/04/07 11:32:38;;;;;;;6.95;1.38;;;17.90;64.50;;;;;;4990135;28;20019;-87
2022/04/07 11:35:14;;;;;;;5.68;2.40;;;17.50;65.60;;;;;;4957507;28;20105;-86
2022/04/07 11:37:44;;;;;;;6.70;1.83;;;17.50;67.20;;;;;;4975004;28;20077;-86
2022/04/07 11:40:10;;;;;;;7.63;1.48;;;17.70;68.10;;;;;;4957760;28;20030;-86
2022/04/07 11:42:37;;;;;;;10.57;1.85;;;17.80;65.70;;;;;;4957639;28;20046;-86
2022/04/07 11:45:03;;;;;;;3.95;1.40;;;18.00;66.10;;;;;;4957789;28;20037;-86
2022/04/07 11:47:33;;;;;;;9.07;3.58;;;18.20;62.20;;;;;;4958042;28;20074;-86
2022/04/07 11:50:00;;;;;;;8.10;1.83;;;18.30;62.80;;;;;;4957697;28;20125;-86
2022/04/07 11:52:31;;;;;;;8.90;2.00;;;17.90;64.10;;;;;;4974838;28;20387;-87
2022/04/07 11:54:59;;;;;;;11.52;2.00;;;17.70;64.60;;;;;;4957721;28;20043;-84
2022/04/07 11:57:29;;;;;;;7.70;3.22;;;17.70;66.10;;;;;;4957549;28;20027;-86
2022/04/07 11:59:59;;;;;;;5.65;2.20;;;17.80;66.60;;;;;;4957292;28;20175;-86
2022/04/07 12:02:26;;;;;;;12.23;2.30;;;18.10;64.50;;;;;;4957336;28;20030;-86
2022/04/07 12:04:56;;;;;;;5.90;2.15;;;18.00;64.90;;;;;;4956984;28;20110;-86
2022/04/07 12:07:22;;;;;;;9.82;1.20;;;18.00;64.40;;;;;;4974617;28;20027;-86
2022/04/07 12:09:48;;;;;;;11.65;1.77;;;18.00;63.30;;;;;;4957344;28;20069;-86
2022/04/07 12:12:14;;;;;;;9.80;1.40;;;18.00;63.60;;;;;;4957396;28;20514;-86
2022/04/07 12:14:42;;;;;;;6.63;1.55;;;18.00;62.90;;;;;;4989433;28;20030;-85
2022/04/07 12:17:09;;;;;;;9.50;1.50;;;18.10;63.80;;;;;;4974296;28;20081;-84
2022/04/07 12:19:48;;;;;;;8.90;1.45;;;18.40;62.40;;;;;;4957402;28;20105;-86
2022/04/07 12:22:15;;;;;;;10.95;1.55;;;18.20;62.80;;;;;;4957117;28;20064;-86
2022/04/07 12:25:04;;;;;;;31.20;2.72;;;18.20;62.10;;;;;;4974226;28;20030;-86
2022/04/07 12:27:31;;;;;;;8.30;2.13;;;17.80;63.50;;;;;;4957224;28;20031;-86
2022/04/07 12:29:59;;;;;;;7.07;1.65;;;17.60;65.90;;;;;;4989757;28;20045;-86
2022/04/07 12:32:26;;;;;;;5.93;1.05;;;17.70;65.30;;;;;;4989103;28;20027;-86
2022/04/07 12:34:51;;;;;;;9.68;1.58;;;17.70;65.30;;;;;;4956819;28;20041;-86
2022/04/07 12:37:38;;;;;;;5.15;1.00;;;17.80;64.10;;;;;;4973077;28;20027;-86
2022/04/07 12:40:26;;;;;;;12.30;2.83;;;17.80;62.80;;;;;;4957185;28;20031;-85
2022/04/07 12:42:58;;;;;;;14.40;4.32;;;17.40;64.00;;;;;;4934337;28;20047;-86
2022/04/07 12:45:24;;;;;;;11.50;2.10;;;17.40;65.00;;;;;;4957170;28;20045;-86
2022/04/07 12:48:10;;;;;;;6.13;1.25;;;17.30;66.40;;;;;;4957142;28;20031;-86
2022/04/07 12:50:36;;;;;;;7.57;1.20;;;17.30;64.30;;;;;;4956699;28;20034;-86
2022/04/07 12:53:02;;;;;;;11.95;1.15;;;17.20;66.00;;;;;;4957089;28;20054;-86
2022/04/07 12:55:36;;;;;;;7.43;1.63;;;17.20;66.00;;;;;;4973563;28;20071;-85
2022/04/07 12:58:03;;;;;;;8.38;1.48;;;17.20;68.00;;;;;;4955474;28;20384;-86
2022/04/07 13:00:30;;;;;;;12.82;1.08;;;17.30;67.10;;;;;;4956209;28;20035;-87
2022/04/07 13:02:58;;;;;;;7.30;1.40;;;17.40;66.90;;;;;;4956948;28;20027;-86
2022/04/07 13:05:31;;;;;;;5.80;1.88;;;17.40;65.40;;;;;;4974195;28;20031;-87
2022/04/07 13:07:59;;;;;;;9.55;1.65;;;17.40;66.10;;;;;;4973694;28;20521;-85